Time;durP1;ratioP1;P1;durP2;ratioP2;P2;SDS_P1;SDS_P2;PMS_P1;PMS_P2;Temp;Humidity;BMP_temperature;BMP_pressure;BME280_temperature;BME280_humidity;BME280_pressure;Samples;Min_cycle;Max_cycle;Signal;HPM_P1;HPM_P2
2022/08/01 00:00:34;;;;;;;5.08;2.15;;;;;;;24.87;100.00;99068.85;1678057;84;21551;-66
2022/08/01 00:03:05;;;;;;;3.72;2.15;;;;;;;24.87;100.00;99071.67;1677004;84;21010;-68
2022/08/01 00:05:34;;;;;;;3.15;2.45;;;;;;;24.84;100.00;99073.94;1666874;84;21335;-68
2022/08/01 00:08:00;;;;;;;4.67;2.20;;;;;;;24.80;100.00;99071.95;1674293;84;21068;-68
2022/08/01 00:10:33;;;;;;;10.88;2.50;;;;;;;24.77;100.00;99070.64;1677564;84;21006;-67
2022/08/01 00:13:02;;;;;;;3.90;2.20;;;;;;;24.74;100.00;99072.27;1676438;84;21041;-68
2022/08/01 00:15:30;;;;;;;6.83;1.98;;;;;;;24.68;100.00;99062.73;1676633;84;21033;-67
2022/08/01 00:17:59;;;;;;;7.97;1.85;;;;;;;24.63;100.00;99066.04;1676344;84;21089;-66
2022/08/01 00:20:29;;;;;;;5.33;2.12;;;;;;;24.61;100.00;99063.66;1676237;84;21511;-69
2022/08/01 00:23:06;;;;;;;3.83;1.82;;;;;;;24.61;100.00;99067.08;1676857;84;21048;-67
2022/08/01 00:25:37;;;;;;;5.05;2.40;;;;;;;24.60;100.00;99064.09;1678113;84;21021;-68
2022/08/01 00:28:08;;;;;;;6.40;1.92;;;;;;;24.56;100.00;99065.55;1679401;84;21112;-66
2022/08/01 00:30:39;;;;;;;2.70;1.80;;;;;;;24.56;100.00;99062.73;1677341;84;21077;-66
2022/08/01 00:33:08;;;;;;;4.33;2.10;;;;;;;24.57;100.00;99064.95;1678246;84;21005;-64
2022/08/01 00:35:38;;;;;;;10.75;2.60;;;;;;;24.50;100.00;99055.37;1680596;84;21640;-67
2022/08/01 00:38:06;;;;;;;4.00;2.20;;;;;;;24.44;100.00;99057.09;1675589;84;21092;-68
2022/08/01 00:40:36;;;;;;;5.05;2.12;;;;;;;24.40;100.00;99054.94;1680172;84;21090;-66
2022/08/01 00:43:03;;;;;;;3.27;2.12;;;;;;;24.39;100.00;99056.17;1678366;84;21100;-67
2022/08/01 00:45:30;;;;;;;4.05;2.37;;;;;;;24.35;100.00;99057.63;1666529;84;21097;-66
2022/08/01 00:48:02;;;;;;;11.05;2.50;;;;;;;24.30;100.00;99057.52;1680636;84;21827;-68
2022/08/01 00:50:34;;;;;;;7.20;2.33;;;;;;;24.30;100.00;99053.89;1681113;84;21065;-66
2022/08/01 00:53:02;;;;;;;4.80;2.10;;;;;;;24.29;100.00;99048.09;1677574;84;21073;-67
2022/08/01 00:55:29;;;;;;;5.10;2.00;;;;;;;24.29;100.00;99049.50;1679558;84;21208;-66
2022/08/01 00:57:56;;;;;;;10.10;2.30;;;;;;;24.27;100.00;99049.92;1677386;84;21021;-67
2022/08/01 01:00:28;;;;;;;9.55;2.47;;;;;;;24.27;100.00;99045.70;1678837;84;21045;-68
2022/08/01 01:02:54;;;;;;;6.45;2.20;;;;;;;24.27;100.00;99042.89;1680392;84;21096;-66
2022/08/01 01:05:22;;;;;;;5.95;2.27;;;;;;;24.26;100.00;99038.47;1681301;84;21054;-68
2022/08/01 01:08:07;;;;;;;9.65;2.08;;;;;;;24.26;100.00;99034.88;1681873;84;21513;-67
2022/08/01 01:10:44;;;;;;;2.65;1.65;;;;;;;24.24;100.00;99040.91;1680051;84;21072;-67
2022/08/01 01:13:22;;;;;;;9.55;2.55;;;;;;;24.26;100.00;99041.28;1675281;84;21052;-67
2022/08/01 01:16:05;;;;;;;6.85;2.17;;;;;;;24.26;100.00;99043.32;1678729;84;21561;-66
2022/08/01 01:18:53;;;;;;;5.40;2.27;;;;;;;24.24;100.00;99035.28;1675408;84;27605;-67
2022/08/01 01:21:28;;;;;;;7.28;2.35;;;;;;;24.35;100.00;99038.53;1674689;84;21147;-67
2022/08/01 01:24:38;;;;;;;6.85;2.58;;;;;;;24.28;100.00;99034.63;1678690;84;21529;-67
2022/08/01 01:27:23;;;;;;;8.65;2.20;;;;;;;24.24;100.00;99035.28;1680216;84;21040;-68
2022/08/01 01:29:55;;;;;;;6.22;2.52;;;;;;;24.19;100.00;99033.75;1681546;84;21005;-66
2022/08/01 01:32:35;;;;;;;3.10;1.77;;;;;;;24.12;100.00;99032.41;1680155;84;21033;-68
2022/08/01 01:35:26;;;;;;;4.50;2.27;;;;;;;24.07;100.00;99028.07;1680138;84;21001;-71
2022/08/01 01:38:09;;;;;;;7.87;2.47;;;;;;;24.06;100.00;99033.52;1681762;84;21080;-68
2022/08/01 01:40:37;;;;;;;11.10;2.22;;;;;;;24.04;100.00;99035.95;1681945;84;21205;-68
2022/08/01 01:43:03;;;;;;;10.95;2.50;;;;;;;24.04;100.00;99034.55;1679563;84;21005;-67
2022/08/01 01:45:32;;;;;;;5.85;2.72;;;;;;;24.05;100.00;99034.73;1672223;84;21001;-69
2022/08/01 01:48:03;;;;;;;6.15;2.25;;;;;;;24.03;100.00;99031.56;1682802;84;21762;-66
2022/08/01 01:50:31;;;;;;;5.37;2.30;;;;;;;24.05;100.00;99042.39;1680387;84;21529;-67
2022/08/01 01:52:58;;;;;;;9.18;2.92;;;;;;;24.05;100.00;99052.23;1679705;84;21554;-67
2022/08/01 01:55:31;;;;;;;4.17;2.30;;;;;;;24.03;100.00;99042.02;1681861;83;21061;-66
2022/08/01 01:57:58;;;;;;;7.62;2.35;;;;;;;24.01;100.00;99051.48;1682828;84;22095;-70
2022/08/01 02:00:26;;;;;;;4.65;2.67;;;;;;;23.98;100.00;99053.14;1683153;84;21626;-69
2022/08/01 02:02:54;;;;;;;4.20;1.95;;;;;;;23.96;100.00;99049.95;1647816;84;21092;-67
2022/08/01 02:05:23;;;;;;;5.92;2.58;;;;;;;24.01;100.00;99049.47;1667787;84;21077;-67
2022/08/01 02:07:50;;;;;;;6.90;2.25;;;;;;;23.99;100.00;99048.28;1681592;84;21069;-67
2022/08/01 02:10:19;;;;;;;6.85;2.25;;;;;;;23.95;100.00;99048.36;1680356;84;21001;-68
2022/08/01 02:12:49;;;;;;;11.57;2.33;;;;;;;23.95;100.00;99046.95;1681014;84;21168;-67
2022/08/01 02:15:16;;;;;;;12.07;2.60;;;;;;;23.95;100.00;99046.33;1681631;84;21061;-67
2022/08/01 02:17:46;;;;;;;9.83;2.15;;;;;;;23.92;100.00;99042.96;1608666;84;21065;-68
2022/08/01 02:20:14;;;;;;;6.87;2.62;;;;;;;23.94;100.00;99045.34;1682641;84;21093;-67
2022/08/01 02:22:51;;;;;;;2.62;2.40;;;;;;;23.95;100.00;99045.55;1679361;83;21052;-67
2022/08/01 02:25:31;;;;;;;5.55;2.70;;;;;;;23.96;100.00;99042.91;1681550;84;21232;-70
2022/08/01 02:28:04;;;;;;;8.55;2.35;;;;;;;23.99;100.00;99037.84;1668050;84;21014;-68
2022/08/01 02:30:36;;;;;;;5.53;2.33;;;;;;;23.99;100.00;99039.84;1683935;84;21497;-66
2022/08/01 02:33:10;;;;;;;2.85;2.47;;;;;;;23.98;100.00;99041.89;1679477;84;21076;-66
2022/08/01 02:35:44;;;;;;;5.55;2.72;;;;;;;24.00;100.00;99038.65;1679871;84;20993;-66
2022/08/01 02:38:14;;;;;;;5.03;3.05;;;;;;;23.97;100.00;99032.47;1678434;84;21077;-67
2022/08/01 02:40:46;;;;;;;3.90;2.10;;;;;;;23.95;100.00;99030.08;1680781;84;21016;-66
2022/08/01 02:43:17;;;;;;;5.92;2.47;;;;;;;23.97;100.00;99025.44;1680380;84;21081;-68
2022/08/01 02:45:48;;;;;;;5.92;2.45;;;;;;;23.92;100.00;99026.09;1679548;84;21076;-65
2022/08/01 02:48:16;;;;;;;6.87;2.72;;;;;;;23.92;100.00;99025.28;1681062;84;21037;-70
2022/08/01 02:50:45;;;;;;;10.63;2.67;;;;;;;23.95;100.00;99027.27;1682222;84;21131;-67
2022/08/01 02:53:15;;;;;;;6.40;2.67;;;;;;;23.91;100.00;99025.11;1679880;84;21001;-69
2022/08/01 02:55:44;;;;;;;5.85;2.42;;;;;;;23.92;100.00;99023.88;1679878;84;21060;-66
2022/08/01 02:58:15;;;;;;;9.28;3.60;;;;;;;23.92;100.00;99023.27;1669080;84;21028;-67
2022/08/01 03:00:42;;;;;;;4.33;2.30;;;;;;;23.91;100.00;99025.11;1685752;84;21147;-67
2022/08/01 03:03:13;;;;;;;8.45;2.25;;;;;;;23.92;100.00;99023.27;1682695;84;21695;-69
2022/08/01 03:05:40;;;;;;;4.12;1.85;;;;;;;23.95;100.00;99023.83;1681539;84;21605;-70
2022/08/01 03:08:10;;;;;;;6.55;2.27;;;;;;;23.96;100.00;99026.03;1665996;84;21096;-69
2022/08/01 03:10:40;;;;;;;5.62;2.72;;;;;;;23.95;100.00;99028.67;1680908;84;21608;-66
2022/08/01 03:13:11;;;;;;;12.40;2.75;;;;;;;23.95;100.00;99032.27;1678986;84;21005;-67
2022/08/01 03:15:40;;;;;;;5.97;2.02;;;;;;;23.99;100.00;99032.22;1667898;84;21167;-67
2022/08/01 03:18:09;;;;;;;11.53;2.60;;;;;;;23.95;100.00;99030.86;1679185;84;21088;-66
2022/08/01 03:20:37;;;;;;;5.45;2.85;;;;;;;23.91;100.00;99039.97;1681945;84;21032;-67
2022/08/01 03:23:09;;;;;;;11.08;3.22;;;;;;;23.93;100.00;99040.95;1669259;83;21521;-66
2022/08/01 03:25:40;;;;;;;23.83;4.03;;;;;;;23.91;100.00;99046.20;1677735;84;21514;-66
2022/08/01 03:28:12;;;;;;;23.42;4.97;;;;;;;23.92;100.00;99041.55;1656302;84;21522;-66
2022/08/01 03:30:38;;;;;;;15.78;2.72;;;;;;;23.91;100.00;99034.95;1635948;84;21053;-66
2022/08/01 03:33:05;;;;;;;6.22;2.15;;;;;;;23.89;100.00;99038.79;1657967;84;21026;-66
2022/08/01 03:35:37;;;;;;;3.55;2.30;;;;;;;23.89;100.00;99038.79;1677177;84;21061;-66
2022/08/01 03:38:07;;;;;;;4.30;2.62;;;;;;;23.90;100.00;99043.21;1678098;84;21075;-66
2022/08/01 03:40:51;;;;;;;6.05;2.10;;;;;;;23.90;100.00;99043.98;1680253;84;21551;-67
2022/08/01 03:43:29;;;;;;;3.98;2.40;;;;;;;23.84;100.00;99040.06;1678808;84;21085;-66
2022/08/01 03:46:04;;;;;;;5.28;2.20;;;;;;;23.80;100.00;99035.89;1677667;84;21081;-66
2022/08/01 03:48:36;;;;;;;14.15;2.80;;;;;;;23.82;100.00;99034.06;1677387;84;21045;-65
2022/08/01 03:51:04;;;;;;;5.45;1.85;;;;;;;23.78;100.00;99033.33;1678033;84;21015;-66
2022/08/01 03:53:31;;;;;;;3.58;2.35;;;;;;;23.78;100.00;99040.36;1680487;84;21079;-66
2022/08/01 03:56:01;;;;;;;5.35;2.02;;;;;;;23.76;100.00;99036.57;1676688;84;21089;-67
2022/08/01 03:58:33;;;;;;;2.17;1.98;;;;;;;23.76;100.00;99032.36;1679300;84;21679;-66
2022/08/01 04:01:00;;;;;;;7.90;1.90;;;;;;;23.78;100.00;99034.74;1680353;84;21101;-66
2022/08/01 04:03:29;;;;;;;4.70;1.75;;;;;;;23.77;100.00;99035.34;1678150;84;21114;-65
2022/08/01 04:05:56;;;;;;;11.48;2.22;;;;;;;23.79;100.00;99031.50;1677001;84;21147;-67
2022/08/01 04:08:23;;;;;;;7.75;2.27;;;;;;;23.80;100.00;99036.50;1656662;84;21504;-65
2022/08/01 04:10:53;;;;;;;4.90;1.92;;;;;;;23.81;100.00;99039.52;1659661;84;21097;-66
2022/08/01 04:13:22;;;;;;;3.15;1.98;;;;;;;23.83;100.00;99031.45;1678321;84;20974;-69
2022/08/01 04:15:52;;;;;;;5.35;2.10;;;;;;;23.82;100.00;99032.05;1677198;84;21081;-66
2022/08/01 04:18:22;;;;;;;6.95;2.35;;;;;;;23.81;100.00;99031.88;1680713;84;21014;-66
2022/08/01 04:20:51;;;;;;;6.92;2.37;;;;;;;23.80;100.00;99032.28;1678518;84;21215;-67
2022/08/01 04:23:24;;;;;;;5.80;2.27;;;;;;;23.83;100.00;99036.45;1677569;84;21062;-66
2022/08/01 04:25:53;;;;;;;8.53;2.50;;;;;;;23.90;100.00;99036.18;1680179;84;21114;-67
2022/08/01 04:28:25;;;;;;;6.00;1.82;;;;;;;23.93;100.00;99038.14;1675197;84;21121;-68
2022/08/01 04:30:54;;;;;;;2.27;1.72;;;;;;;23.98;100.00;99036.27;1679709;84;21156;-67
2022/08/01 04:33:22;;;;;;;2.37;1.87;;;;;;;24.02;100.00;99034.80;1675982;84;21046;-68
2022/08/01 04:35:53;;;;;;;5.53;2.00;;;;;;;24.05;100.00;99028.33;1677210;84;21066;-66
2022/08/01 04:38:27;;;;;;;7.83;2.08;;;;;;;24.16;100.00;99034.58;1677062;84;21034;-69
2022/08/01 04:40:55;;;;;;;11.60;2.20;;;;;;;24.22;100.00;99033.52;1681172;84;21109;-70
2022/08/01 04:43:23;;;;;;;3.70;1.80;;;;;;;24.29;100.00;99027.76;1667489;84;21526;-66
2022/08/01 04:45:52;;;;;;;4.33;2.20;;;;;;;24.35;100.00;99029.48;1668459;84;21101;-67
2022/08/01 04:48:24;;;;;;;5.67;2.12;;;;;;;24.39;100.00;99028.83;1680348;84;21034;-67
2022/08/01 04:50:52;;;;;;;6.15;2.05;;;;;;;24.45;100.00;99026.30;1656013;84;21093;-66
2022/08/01 04:53:21;;;;;;;9.28;1.98;;;;;;;24.55;100.00;99028.14;1682755;84;21006;-64
2022/08/01 04:55:54;;;;;;;3.55;1.80;;;;;;;24.61;100.00;99021.42;1679325;84;21769;-63
2022/08/01 04:58:23;;;;;;;4.95;1.75;;;;;;;24.66;100.00;99018.72;1682917;84;21171;-66
2022/08/01 05:00:51;;;;;;;13.75;2.15;;;;;;;24.74;100.00;99022.19;1678868;84;21053;-66
2022/08/01 05:03:20;;;;;;;6.50;2.05;;;;;;;24.78;100.00;99019.52;1680901;84;21097;-68
2022/08/01 05:05:50;;;;;;;6.55;1.65;;;;;;;24.78;100.00;99014.48;1684900;84;21056;-67
2022/08/01 05:08:18;;;;;;;6.55;1.85;;;;;;;24.78;100.00;99018.70;1680390;84;21022;-65
2022/08/01 05:10:45;;;;;;;9.98;1.95;;;;;;;24.80;100.00;99025.48;1677882;84;21351;-65
2022/08/01 05:13:11;;;;;;;10.38;2.25;;;;;;;24.88;100.00;99023.95;1677527;84;21058;-69
2022/08/01 05:15:40;;;;;;;4.80;2.65;;;;;;;24.83;100.00;99021.63;1679944;84;21069;-68
2022/08/01 05:18:09;;;;;;;8.85;2.02;;;;;;;24.84;100.00;99018.38;1678279;84;21061;-66
2022/08/01 05:20:37;;;;;;;5.37;2.33;;;;;;;24.87;100.00;99027.38;1676974;84;21224;-68
2022/08/01 05:23:05;;;;;;;6.45;2.05;;;;;;;24.98;100.00;99024.40;1679510;84;21105;-67
2022/08/01 05:25:33;;;;;;;6.03;2.05;;;;;;;24.98;100.00;99022.19;1678898;84;20998;-68
2022/08/01 05:28:02;;;;;;;7.72;2.20;;;;;;;24.99;100.00;99016.12;1675263;84;21573;-68
2022/08/01 05:30:29;;;;;;;2.58;1.65;;;;;;;25.04;100.00;99016.25;1678481;84;21101;-67
2022/08/01 05:32:59;;;;;;;6.47;2.45;;;;;;;25.10;100.00;99015.11;1680422;84;21628;-67
2022/08/01 05:35:27;;;;;;;3.62;1.75;;;;;;;25.12;100.00;99015.48;1680649;84;21034;-66
2022/08/01 05:37:54;;;;;;;6.55;1.65;;;;;;;25.17;100.00;99022.03;1677587;84;21166;-67
2022/08/01 05:40:21;;;;;;;12.65;2.15;;;;;;;25.24;100.00;99022.50;1680314;84;21097;-66
2022/08/01 05:42:48;;;;;;;2.65;1.80;;;;;;;25.27;100.00;99017.40;1677822;84;21037;-67
2022/08/01 05:45:20;;;;;;;4.10;1.77;;;;;;;25.26;100.00;99012.39;1680365;84;21525;-70
2022/08/01 05:47:46;;;;;;;7.90;2.00;;;;;;;25.31;100.00;99019.55;1677532;84;21058;-67
2022/08/01 05:50:14;;;;;;;4.97;2.05;;;;;;;25.35;100.00;99023.06;1685475;84;21009;-69
2022/08/01 05:52:49;;;;;;;2.90;1.57;;;;;;;25.40;100.00;99027.42;1661618;84;21054;-69
2022/08/01 05:55:16;;;;;;;11.90;2.10;;;;;;;25.48;100.00;99026.64;1684655;84;21081;-66
2022/08/01 05:57:42;;;;;;;8.45;2.83;;;;;;;25.55;100.00;99028.52;1680465;84;21567;-69
2022/08/01 06:00:12;;;;;;;5.97;2.55;;;;;;;25.57;100.00;99024.05;1659004;84;21522;-67
2022/08/01 06:02:45;;;;;;;11.93;2.50;;;;;;;25.62;100.00;99036.83;1661671;84;21069;-67
2022/08/01 06:05:16;;;;;;;5.17;3.08;;;;;;;25.67;100.00;99036.34;1660234;84;21066;-66
2022/08/01 06:07:43;;;;;;;11.60;3.00;;;;;;;25.70;100.00;99037.48;1681106;84;21458;-69
2022/08/01 06:10:12;;;;;;;4.22;2.35;;;;;;;25.75;100.00;99042.00;1681877;84;21227;-68
2022/08/01 06:12:39;;;;;;;2.83;1.98;;;;;;;25.75;100.00;99034.16;1680763;84;21053;-68
2022/08/01 06:15:08;;;;;;;5.28;1.82;;;;;;;25.76;100.00;99025.25;1682303;83;21031;-75
2022/08/01 06:17:41;;;;;;;6.70;2.22;;;;;;;25.82;100.00;99016.27;1679401;84;21018;-67
2022/08/01 06:20:11;;;;;;;6.53;2.30;;;;;;;25.88;100.00;99020.16;1682140;83;21050;-64
2022/08/01 06:22:40;;;;;;;5.35;1.62;;;;;;;25.94;100.00;99013.39;1666563;84;21174;-66
2022/08/01 06:25:09;;;;;;;5.60;2.15;;;;;;;26.03;100.00;99012.17;1680382;83;21054;-64
2022/08/01 06:27:42;;;;;;;4.75;2.30;;;;;;;26.09;100.00;99017.46;1655060;84;21054;-75
2022/08/01 06:30:11;;;;;;;6.83;2.17;;;;;;;26.17;100.00;99011.66;1677071;84;21049;-65
2022/08/01 06:32:38;;;;;;;14.63;2.17;;;;;;;26.31;100.00;99010.48;1684536;83;21053;-64
2022/08/01 06:35:05;;;;;;;3.85;2.10;;;;;;;26.36;100.00;99011.40;1680652;84;21130;-66
2022/08/01 06:37:32;;;;;;;5.30;2.10;;;;;;;26.41;100.00;99003.03;1677435;84;21577;-67
2022/08/01 06:40:07;;;;;;;3.60;2.05;;;;;;;26.46;99.27;99009.56;1680957;84;21054;-66
2022/08/01 06:42:35;;;;;;;5.67;1.57;;;;;;;26.53;98.52;99003.71;1677247;84;21014;-66
2022/08/01 06:45:10;;;;;;;7.30;2.10;;;;;;;26.55;98.62;99006.89;1682801;84;21061;-65
2022/08/01 06:47:41;;;;;;;3.55;2.12;;;;;;;26.58;98.24;99004.59;1679324;84;21147;-76
2022/08/01 06:50:09;;;;;;;3.98;2.10;;;;;;;26.64;96.96;99005.47;1679644;84;21057;-69
2022/08/01 06:52:36;;;;;;;5.53;2.10;;;;;;;26.64;97.06;98996.38;1678775;84;21517;-66
2022/08/01 06:55:04;;;;;;;3.42;2.00;;;;;;;26.68;98.64;98997.06;1677747;84;21639;-72
2022/08/01 06:57:35;;;;;;;6.47;2.00;;;;;;;26.77;98.71;98995.02;1682678;83;21193;-67
2022/08/01 07:00:11;;;;;;;7.80;2.37;;;;;;;26.84;98.66;98994.83;1677180;84;21494;-68
2022/08/01 07:02:41;;;;;;;8.23;4.10;;;;;;;26.92;98.38;99001.07;1657871;84;21090;-68
2022/08/01 07:05:09;;;;;;;5.75;2.37;;;;;;;27.00;98.91;99007.94;1683283;84;21074;-67
2022/08/01 07:07:39;;;;;;;8.58;2.37;;;;;;;27.07;97.94;99000.08;1684543;84;21080;-67
2022/08/01 07:10:11;;;;;;;3.42;1.42;;;;;;;27.16;97.33;98992.36;1680969;84;21019;-67
2022/08/01 07:12:40;;;;;;;1.98;1.77;;;;;;;27.23;96.81;98992.78;1678615;84;21171;-65
2022/08/01 07:15:10;;;;;;;9.63;2.52;;;;;;;27.29;96.79;98988.78;1675931;84;21037;-65
2022/08/01 07:17:41;;;;;;;7.95;2.35;;;;;;;27.37;95.81;98995.81;1679411;83;21127;-66
2022/08/01 07:20:12;;;;;;;2.92;1.72;;;;;;;27.39;94.93;98991.12;1675659;84;21058;-64
2022/08/01 07:22:39;;;;;;;22.10;2.58;;;;;;;27.43;95.83;98991.17;1656756;84;21082;-65
2022/08/01 07:25:11;;;;;;;5.40;2.08;;;;;;;27.49;95.82;98995.66;1692110;83;21009;-65
2022/08/01 07:27:40;;;;;;;9.70;2.30;;;;;;;27.58;97.56;98990.77;1692546;84;21039;-66
2022/08/01 07:30:14;;;;;;;8.65;2.40;;;;;;;27.70;96.88;98992.84;1692948;84;21094;-66
2022/08/01 07:32:50;;;;;;;10.68;2.55;;;;;;;27.80;95.55;98986.67;1692938;84;21079;-66
2022/08/01 07:35:22;;;;;;;10.08;2.60;;;;;;;27.98;93.03;98983.11;1687009;84;21553;-65
2022/08/01 07:37:52;;;;;;;6.53;2.37;;;;;;;28.02;90.67;98985.18;1670901;84;21063;-66
2022/08/01 07:40:21;;;;;;;11.18;2.27;;;;;;;28.07;88.65;98985.41;1693686;84;21050;-66
2022/08/01 07:42:51;;;;;;;8.53;2.42;;;;;;;28.12;88.70;98981.83;1679683;84;21127;-67
2022/08/01 07:45:20;;;;;;;12.58;2.12;;;;;;;28.19;91.04;98989.47;1681298;84;21060;-68
2022/08/01 07:47:49;;;;;;;4.10;2.22;;;;;;;28.30;91.10;98985.50;1678977;84;21074;-66
2022/08/01 07:50:27;;;;;;;8.23;1.70;;;;;;;28.37;90.56;98983.84;1680922;84;21920;-65
2022/08/01 07:52:58;;;;;;;14.30;2.33;;;;;;;28.44;89.28;98984.23;1678383;84;21629;-69
2022/08/01 07:55:34;;;;;;;8.10;2.80;;;;;;;28.46;89.54;98980.94;1680093;84;21018;-66
2022/08/01 07:58:03;;;;;;;12.47;2.15;;;;;;;28.53;87.64;98981.50;1677578;84;21597;-67
2022/08/01 08:00:30;;;;;;;8.85;2.20;;;;;;;28.58;88.04;98980.73;1677643;84;21049;-66
2022/08/01 08:03:03;;;;;;;5.50;2.42;;;;;;;28.61;88.75;98979.20;1678314;84;21070;-68
2022/08/01 08:05:34;;;;;;;7.92;2.37;;;;;;;28.63;88.95;98979.53;1680327;84;21515;-65
2022/08/01 08:08:00;;;;;;;3.17;1.60;;;;;;;28.63;90.23;98978.12;1636651;84;21169;-66
2022/08/01 08:10:27;;;;;;;3.25;1.90;;;;;;;28.67;88.39;98980.21;1678417;83;21487;-65
2022/08/01 08:13:00;;;;;;;5.30;2.50;;;;;;;28.73;88.55;98978.21;1678329;84;21061;-66
2022/08/01 08:15:29;;;;;;;9.90;2.05;;;;;;;28.71;87.86;98982.13;1679486;84;21146;-64
2022/08/01 08:18:01;;;;;;;2.85;2.05;;;;;;;28.75;88.85;98982.16;1674947;84;21081;-65
2022/08/01 08:20:31;;;;;;;7.42;2.35;;;;;;;28.80;88.12;98978.73;1672716;84;21014;-66
2022/08/01 08:22:59;;;;;;;9.30;2.75;;;;;;;28.89;88.94;98982.27;1662082;84;20991;-67
2022/08/01 08:25:28;;;;;;;9.83;2.42;;;;;;;28.96;89.35;98984.67;1669288;84;21072;-66
2022/08/01 08:27:57;;;;;;;6.35;2.30;;;;;;;29.08;87.82;98979.60;1669983;84;21782;-67
2022/08/01 08:30:23;;;;;;;5.78;2.33;;;;;;;29.11;88.13;98977.25;1669018;84;21552;-66
2022/08/01 08:32:53;;;;;;;11.65;2.85;;;;;;;29.21;88.42;98966.77;1670294;84;21087;-68
2022/08/01 08:35:25;;;;;;;3.65;2.50;;;;;;;29.25;88.97;98965.20;1669048;84;21143;-69
2022/08/01 08:38:01;;;;;;;5.05;3.30;;;;;;;29.33;88.79;98967.94;1656128;84;21154;-67
2022/08/01 08:40:33;;;;;;;7.33;2.45;;;;;;;29.38;88.05;98965.91;1674717;84;21111;-64
2022/08/01 08:43:05;;;;;;;7.70;2.33;;;;;;;29.47;87.55;98959.50;1671809;84;21048;-67
2022/08/01 08:45:36;;;;;;;10.27;2.40;;;;;;;29.53;88.23;98963.95;1682892;84;21033;-65
2022/08/01 08:48:09;;;;;;;4.40;2.40;;;;;;;29.61;88.48;98960.23;1666682;84;22260;-66
2022/08/01 08:50:38;;;;;;;20.13;4.53;;;;;;;29.76;89.07;98959.82;1666899;86;21099;-66
2022/08/01 08:53:09;;;;;;;8.55;2.67;;;;;;;29.88;88.98;98960.97;1669876;84;21204;-64
2022/08/01 08:55:37;;;;;;;7.60;2.37;;;;;;;29.99;87.08;98965.42;1638052;84;21400;-66
2022/08/01 08:58:15;;;;;;;12.82;2.52;;;;;;;30.09;87.07;98958.51;1678241;84;21608;-70
2022/08/01 09:00:44;;;;;;;6.50;2.50;;;;;;;30.16;84.14;98958.04;1690262;84;21001;-66
2022/08/01 09:03:23;;;;;;;8.60;2.70;;;;;;;30.17;86.14;98955.34;1687838;84;21052;-67
2022/08/01 09:05:52;;;;;;;8.15;2.70;;;;;;;30.26;86.70;98963.93;1673380;84;21176;-66
2022/08/01 09:08:25;;;;;;;;;;;;;;;30.29;87.28;98955.08;1684820;83;21088;-66
2022/08/01 09:10:55;;;;;;;5.22;2.67;;;;;;;30.31;86.89;98970.41;1667046;84;20183;-66
2022/08/01 09:13:22;;;;;;;5.22;2.95;;;;;;;30.38;87.58;98963.63;1679966;84;21513;-66
2022/08/01 09:15:56;;;;;;;4.00;2.60;;;;;;;30.45;87.46;98968.22;1681293;84;21530;-67
2022/08/01 09:18:44;;;;;;;11.50;3.20;;;;;;;30.51;87.03;98969.78;1679921;84;21114;-67
2022/08/01 09:21:21;;;;;;;22.87;5.67;;;;;;;30.61;88.10;98972.79;1679854;84;21076;-69
2022/08/01 09:23:53;;;;;;;7.40;3.20;;;;;;;30.68;87.58;98975.95;1681682;84;21076;-64
2022/08/01 09:26:34;;;;;;;10.70;2.75;;;;;;;30.70;87.72;98977.69;1672608;84;21049;-65
2022/08/01 09:29:05;;;;;;;7.58;3.05;;;;;;;30.77;87.15;98975.96;1676937;84;21570;-66
2022/08/01 09:31:52;;;;;;;8.98;3.75;;;;;;;30.83;86.71;98976.12;1679138;84;21100;-68
2022/08/01 09:34:30;;;;;;;3.58;2.98;;;;;;;30.89;85.19;98975.67;1675904;84;21077;-66
2022/08/01 09:37:01;;;;;;;10.35;3.12;;;;;;;30.97;84.83;98980.39;1673458;84;21199;-69
2022/08/01 09:39:42;;;;;;;4.20;2.92;;;;;;;31.07;86.03;98975.48;1674474;84;22221;-67
2022/08/01 09:42:24;;;;;;;7.25;2.85;;;;;;;31.24;86.49;98975.92;1677339;84;21057;-67
2022/08/01 09:44:52;;;;;;;7.05;2.60;;;;;;;31.22;84.07;98973.56;1665668;84;21853;-67
2022/08/01 09:47:22;;;;;;;4.78;2.90;;;;;;;31.30;81.89;98973.23;1678640;83;21041;-66
2022/08/01 09:49:56;;;;;;;6.12;2.85;;;;;;;31.15;81.48;98975.95;1676712;84;21648;-66
2022/08/01 09:52:26;;;;;;;8.35;2.70;;;;;;;31.06;82.06;98978.17;1675694;84;21537;-66
2022/08/01 09:55:04;;;;;;;7.80;2.60;;;;;;;31.05;80.73;98980.88;1661377;84;21052;-66
2022/08/01 09:57:33;;;;;;;9.80;2.92;;;;;;;31.04;79.71;98980.08;1670282;84;21136;-66
2022/08/01 10:00:05;;;;;;;7.92;3.08;;;;;;;31.02;81.85;98979.75;1674862;84;21120;-66
2022/08/01 10:02:48;;;;;;;5.12;2.70;;;;;;;30.99;87.43;98980.71;1663870;84;21045;-64
2022/08/01 10:05:20;;;;;;;11.85;2.92;;;;;;;31.15;89.45;98979.57;1663858;84;21037;-65
2022/08/01 10:08:02;;;;;;;7.33;3.30;;;;;;;31.38;89.31;98969.41;1671860;84;21546;-68
2022/08/01 10:10:35;;;;;;;23.73;3.45;;;;;;;31.49;90.08;98968.94;1672668;83;22212;-66
2022/08/01 10:13:05;;;;;;;17.02;3.35;;;;;;;31.64;89.14;98966.99;1672365;83;21053;-68
2022/08/01 10:15:37;;;;;;;6.47;2.60;;;;;;;31.76;86.53;98965.20;1658157;84;21108;-65
2022/08/01 10:18:07;;;;;;;3.72;2.65;;;;;;;31.86;87.53;98963.72;1665934;84;21580;-64
2022/08/01 10:20:36;;;;;;;8.90;3.35;;;;;;;31.98;89.58;98971.30;1681289;84;21497;-67
2022/08/01 10:23:05;;;;;;;4.67;2.85;;;;;;;32.07;86.16;98967.61;1663797;84;22329;-70
2022/08/01 10:25:39;;;;;;;7.10;3.25;;;;;;;32.05;85.38;98967.30;1664737;84;21052;-68
2022/08/01 10:28:11;;;;;;;5.35;2.72;;;;;;;32.03;84.60;98964.14;1669796;84;22272;-67
2022/08/01 10:30:44;;;;;;;7.03;3.20;;;;;;;32.02;86.57;98966.19;1666210;84;21077;-65
2022/08/01 10:33:16;;;;;;;5.22;2.75;;;;;;;32.12;87.83;98953.34;1676732;84;21065;-66
2022/08/01 10:35:49;;;;;;;3.70;3.05;;;;;;;32.26;87.71;98953.25;1668284;84;21117;-67
2022/08/01 10:38:25;;;;;;;4.00;2.85;;;;;;;32.30;87.22;98952.42;1674031;84;21072;-66
2022/08/01 10:40:54;;;;;;;8.13;3.08;;;;;;;32.34;89.15;98947.97;1682465;84;21088;-65
2022/08/01 10:43:21;;;;;;;7.95;3.92;;;;;;;32.36;87.82;98954.77;1674543;83;21624;-65
2022/08/01 10:45:51;;;;;;;7.65;3.40;;;;;;;32.40;86.96;98957.41;1671349;84;21064;-69
2022/08/01 10:49:00;;;;;;;9.65;2.98;;;;;;;32.44;86.71;98946.63;1666961;84;21143;-67
2022/08/01 10:51:33;;;;;;;6.87;3.20;;;;;;;32.50;84.46;98951.02;1663827;84;38899;-66
2022/08/01 10:54:17;;;;;;;6.17;3.40;;;;;;;32.58;80.34;98945.75;1677180;84;21065;-67
2022/08/01 10:56:48;;;;;;;9.13;2.77;;;;;;;32.58;81.45;98941.48;1670297;84;21061;-64
2022/08/01 10:59:24;;;;;;;3.17;2.62;;;;;;;32.59;79.14;98944.47;1672670;84;21285;-66
2022/08/01 11:02:02;;;;;;;4.42;2.72;;;;;;;32.56;77.33;98939.13;1677707;84;21821;-66
2022/08/01 11:05:08;;;;;;;11.45;3.47;;;;;;;32.53;79.62;98936.59;1672031;84;21060;-64
2022/08/01 11:07:47;;;;;;;8.50;2.92;;;;;;;32.52;74.22;98947.83;1682208;84;21026;-66
2022/08/01 11:10:38;;;;;;;8.15;2.92;;;;;;;32.53;77.12;98930.09;1675700;84;21592;-67
2022/08/01 11:13:08;;;;;;;5.08;2.85;;;;;;;32.60;79.90;98939.70;1668478;84;21662;-67
2022/08/01 11:15:37;;;;;;;3.80;2.70;;;;;;;32.65;80.44;98939.03;1671922;83;22081;-63
2022/08/01 11:18:25;;;;;;;15.15;3.22;;;;;;;32.71;80.51;98934.08;1672294;84;21055;-67
2022/08/01 11:21:02;;;;;;;7.03;3.10;;;;;;;32.77;81.33;98937.84;1665112;83;21156;-67
2022/08/01 11:23:33;;;;;;;5.90;2.85;;;;;;;32.90;78.08;98946.91;1668772;84;21123;-66
2022/08/01 11:26:05;;;;;;;8.65;2.58;;;;;;;32.98;78.83;98947.92;1660076;83;21088;-68
2022/08/01 11:28:33;;;;;;;6.85;2.85;;;;;;;32.90;75.28;98950.38;1688329;84;21423;-64
2022/08/01 11:31:11;;;;;;;2.92;2.42;;;;;;;32.81;76.09;98956.19;1679000;84;21041;-68
2022/08/01 11:33:47;;;;;;;4.90;2.60;;;;;;;32.74;74.42;98953.08;1688012;83;21111;-65
2022/08/01 11:36:20;;;;;;;6.37;2.70;;;;;;;32.76;76.27;98954.15;1683732;84;21061;-68
2022/08/01 11:39:16;;;;;;;8.15;2.92;;;;;;;32.87;77.81;98949.31;1684645;84;21076;-67
2022/08/01 11:41:45;;;;;;;5.80;2.80;;;;;;;32.97;76.37;98961.41;1680621;84;21564;-67
2022/08/01 11:44:17;;;;;;;5.03;2.77;;;;;;;33.00;70.68;98958.20;1665112;84;21048;-66
2022/08/01 11:46:56;;;;;;;10.80;2.85;;;;;;;32.97;70.54;98952.06;1685466;83;21088;-67